sensor_id;sensor_type;location;lat;lon;timestamp;pressure;altitude;pressure_sealevel;temperature;humidity
28008;BME280;15333;50.010;20.020;2023-06-19T00:01:06;98724.63;;;13.71;100.00
28008;BME280;15333;50.010;20.020;2023-06-19T00:04:15;98728.97;;;13.53;100.00
28008;BME280;15333;50.010;20.020;2023-06-19T00:07:15;98726.38;;;13.42;100.00
28008;BME280;15333;50.010;20.020;2023-06-19T00:10:17;98732.56;;;13.33;100.00
28008;BME280;15333;50.010;20.020;2023-06-19T00:13:18;98731.09;;;13.29;100.00
28008;BME280;15333;50.010;20.020;2023-06-19T00:16:20;98732.13;;;13.28;100.00
28008;BME280;15333;50.010;20.020;2023-06-19T00:19:20;98733.16;;;13.16;100.00
28008;BME280;15333;50.010;20.020;2023-06-19T00:22:21;98726.47;;;13.10;100.00
28008;BME280;15333;50.010;20.020;2023-06-19T00:25:22;98724.41;;;13.14;100.00
28008;BME280;15333;50.010;20.020;2023-06-19T00:28:23;98727.84;;;13.05;100.00
28008;BME280;15333;50.010;20.020;2023-06-19T00:31:24;98726.94;;;12.94;100.00
28008;BME280;15333;50.010;20.020;2023-06-19T00:34:28;98724.97;;;12.97;100.00
28008;BME280;15333;50.010;20.020;2023-06-19T00:37:30;98725.13;;;12.74;100.00
28008;BME280;15333;50.010;20.020;2023-06-19T00:40:34;98725.97;;;12.54;100.00
28008;BME280;15333;50.010;20.020;2023-06-19T00:43:35;98724.31;;;12.42;100.00
28008;BME280;15333;50.010;20.020;2023-06-19T00:46:37;98729.25;;;12.26;100.00
28008;BME280;15333;50.010;20.020;2023-06-19T00:49:40;98727.56;;;12.25;100.00
28008;BME280;15333;50.010;20.020;2023-06-19T00:52:42;98728.81;;;12.21;100.00
28008;BME280;15333;50.010;20.020;2023-06-19T00:55:44;98724.53;;;12.18;100.00
28008;BME280;15333;50.010;20.020;2023-06-19T00:58:45;98724.03;;;12.24;100.00
28008;BME280;15333;50.010;20.020;2023-06-19T01:01:48;98735.72;;;12.23;100.00
28008;BME280;15333;50.010;20.020;2023-06-19T01:04:50;98730.75;;;12.19;100.00
28008;BME280;15333;50.010;20.020;2023-06-19T01:08:18;98722.47;;;12.22;100.00
28008;BME280;15333;50.010;20.020;2023-06-19T01:11:26;98728.19;;;12.17;100.00
28008;BME280;15333;50.010;20.020;2023-06-19T01:14:35;98730.53;;;12.10;100.00
28008;BME280;15333;50.010;20.020;2023-06-19T01:17:39;98727.38;;;12.05;100.00
28008;BME280;15333;50.010;20.020;2023-06-19T01:20:40;98724.25;;;12.00;100.00
28008;BME280;15333;50.010;20.020;2023-06-19T01:23:43;98729.00;;;11.97;100.00
28008;BME280;15333;50.010;20.020;2023-06-19T01:26:45;98732.06;;;11.92;100.00
28008;BME280;15333;50.010;20.020;2023-06-19T01:29:46;98744.97;;;11.87;100.00
28008;BME280;15333;50.010;20.020;2023-06-19T01:35:56;98736.47;;;11.82;100.00
28008;BME280;15333;50.010;20.020;2023-06-19T01:39:00;98728.88;;;11.87;100.00
28008;BME280;15333;50.010;20.020;2023-06-19T01:42:02;98730.59;;;11.88;100.00
28008;BME280;15333;50.010;20.020;2023-06-19T01:45:05;98737.94;;;11.86;100.00
28008;BME280;15333;50.010;20.020;2023-06-19T01:48:08;98741.81;;;11.82;100.00
28008;BME280;15333;50.010;20.020;2023-06-19T01:51:09;98738.91;;;11.74;100.00
28008;BME280;15333;50.010;20.020;2023-06-19T01:54:13;98740.63;;;11.75;100.00
28008;BME280;15333;50.010;20.020;2023-06-19T01:57:14;98744.03;;;11.77;100.00
28008;BME280;15333;50.010;20.020;2023-06-19T02:00:15;98738.81;;;12.19;100.00
28008;BME280;15333;50.010;20.020;2023-06-19T02:03:16;98733.56;;;12.17;100.00
28008;BME280;15333;50.010;20.020;2023-06-19T02:06:18;98735.38;;;12.28;100.00
28008;BME280;15333;50.010;20.020;2023-06-19T02:09:19;98737.09;;;12.18;100.00
28008;BME280;15333;50.010;20.020;2023-06-19T02:12:21;98738.81;;;12.19;100.00
28008;BME280;15333;50.010;20.020;2023-06-19T02:15:22;98737.38;;;12.14;100.00
28008;BME280;15333;50.010;20.020;2023-06-19T02:18:23;98742.22;;;12.21;100.00
28008;BME280;15333;50.010;20.020;2023-06-19T02:21:23;98742.56;;;12.16;100.00
28008;BME280;15333;50.010;20.020;2023-06-19T02:24:26;98741.25;;;12.10;100.00
28008;BME280;15333;50.010;20.020;2023-06-19T02:27:27;98740.16;;;12.13;100.00
28008;BME280;15333;50.010;20.020;2023-06-19T02:30:28;98735.38;;;12.16;100.00
28008;BME280;15333;50.010;20.020;2023-06-19T02:33:28;98734.81;;;12.13;100.00
28008;BME280;15333;50.010;20.020;2023-06-19T02:36:30;98731.38;;;12.11;100.00
28008;BME280;15333;50.010;20.020;2023-06-19T02:39:32;98743.22;;;12.08;100.00
28008;BME280;15333;50.010;20.020;2023-06-19T02:42:33;98745.19;;;12.06;100.00
28008;BME280;15333;50.010;20.020;2023-06-19T02:45:35;98740.06;;;12.03;100.00
28008;BME280;15333;50.010;20.020;2023-06-19T02:48:37;98736.41;;;12.04;100.00
28008;BME280;15333;50.010;20.020;2023-06-19T02:51:37;98748.34;;;12.11;100.00
28008;BME280;15333;50.010;20.020;2023-06-19T02:54:41;98746.56;;;12.33;100.00
28008;BME280;15333;50.010;20.020;2023-06-19T02:57:43;98744.84;;;12.32;100.00
28008;BME280;15333;50.010;20.020;2023-06-19T03:00:45;98743.47;;;12.37;100.00
28008;BME280;15333;50.010;20.020;2023-06-19T03:03:46;98756.25;;;12.45;100.00
28008;BME280;15333;50.010;20.020;2023-06-19T03:06:48;98753.53;;;12.56;100.00
28008;BME280;15333;50.010;20.020;2023-06-19T03:09:50;98751.28;;;13.14;100.00
28008;BME280;15333;50.010;20.020;2023-06-19T03:12:51;98747.44;;;13.77;100.00
28008;BME280;15333;50.010;20.020;2023-06-19T03:15:52;98744.13;;;14.23;100.00
28008;BME280;15333;50.010;20.020;2023-06-19T03:18:53;98744.19;;;14.62;100.00
28008;BME280;15333;50.010;20.020;2023-06-19T03:21:56;98747.81;;;14.99;100.00
28008;BME280;15333;50.010;20.020;2023-06-19T03:24:57;98748.00;;;15.35;100.00
28008;BME280;15333;50.010;20.020;2023-06-19T03:27:58;98759.50;;;15.56;100.00
28008;BME280;15333;50.010;20.020;2023-06-19T03:30:59;98755.81;;;16.12;100.00
28008;BME280;15333;50.010;20.020;2023-06-19T03:34:01;98752.56;;;17.66;88.48
28008;BME280;15333;50.010;20.020;2023-06-19T03:37:03;98745.16;;;18.26;81.81
28008;BME280;15333;50.010;20.020;2023-06-19T03:40:05;98752.75;;;17.73;81.46
28008;BME280;15333;50.010;20.020;2023-06-19T03:43:11;98753.22;;;17.42;84.24
28008;BME280;15333;50.010;20.020;2023-06-19T03:46:12;98757.53;;;17.27;85.23
28008;BME280;15333;50.010;20.020;2023-06-19T03:49:13;98756.16;;;17.75;83.56
28008;BME280;15333;50.010;20.020;2023-06-19T03:52:14;98758.66;;;18.76;76.44
28008;BME280;15333;50.010;20.020;2023-06-19T03:55:15;98762.03;;;18.04;79.16
28008;BME280;15333;50.010;20.020;2023-06-19T03:58:16;98756.44;;;19.21;73.66
28008;BME280;15333;50.010;20.020;2023-06-19T04:01:17;98760.53;;;18.68;74.69
28008;BME280;15333;50.010;20.020;2023-06-19T04:04:18;98760.19;;;18.87;76.14
28008;BME280;15333;50.010;20.020;2023-06-19T04:07:19;98752.41;;;19.08;75.33
28008;BME280;15333;50.010;20.020;2023-06-19T04:10:20;98765.97;;;19.16;75.88
28008;BME280;15333;50.010;20.020;2023-06-19T04:13:21;98753.03;;;19.51;75.34
28008;BME280;15333;50.010;20.020;2023-06-19T04:16:22;98762.88;;;19.60;74.13
28008;BME280;15333;50.010;20.020;2023-06-19T04:19:23;98756.66;;;19.82;72.88
28008;BME280;15333;50.010;20.020;2023-06-19T04:22:24;98757.81;;;19.96;71.39
28008;BME280;15333;50.010;20.020;2023-06-19T04:25:25;98756.59;;;19.60;72.49
28008;BME280;15333;50.010;20.020;2023-06-19T04:28:26;98767.28;;;19.53;73.30
28008;BME280;15333;50.010;20.020;2023-06-19T04:31:27;98770.16;;;20.07;71.97
28008;BME280;15333;50.010;20.020;2023-06-19T04:34:30;98774.16;;;22.22;62.24
28008;BME280;15333;50.010;20.020;2023-06-19T04:37:32;98771.69;;;22.78;58.39
28008;BME280;15333;50.010;20.020;2023-06-19T04:40:33;98771.13;;;23.32;56.76
28008;BME280;15333;50.010;20.020;2023-06-19T04:43:34;98771.88;;;23.47;56.04
28008;BME280;15333;50.010;20.020;2023-06-19T04:46:35;98782.88;;;22.33;60.04
28008;BME280;15333;50.010;20.020;2023-06-19T04:49:38;98778.72;;;23.09;57.84
28008;BME280;15333;50.010;20.020;2023-06-19T04:52:39;98777.06;;;23.57;56.16
28008;BME280;15333;50.010;20.020;2023-06-19T04:55:40;98780.06;;;24.03;54.38
28008;BME280;15333;50.010;20.020;2023-06-19T04:58:41;98778.59;;;24.00;53.37
28008;BME280;15333;50.010;20.020;2023-06-19T05:01:47;98781.41;;;24.13;53.13
28008;BME280;15333;50.010;20.020;2023-06-19T05:04:48;98782.25;;;24.62;51.37
28008;BME280;15333;50.010;20.020;2023-06-19T05:07:49;98785.06;;;24.27;52.30
28008;BME280;15333;50.010;20.020;2023-06-19T05:10:49;98782.75;;;24.85;51.09
28008;BME280;15333;50.010;20.020;2023-06-19T05:13:50;98779.34;;;23.88;54.72
28008;BME280;15333;50.010;20.020;2023-06-19T05:16:51;98777.16;;;25.19;50.36
28008;BME280;15333;50.010;20.020;2023-06-19T05:19:52;98781.97;;;25.04;51.15
28008;BME280;15333;50.010;20.020;2023-06-19T05:22:53;98783.00;;;24.36;52.99
28008;BME280;15333;50.010;20.020;2023-06-19T05:25:54;98781.59;;;25.60;49.98
28008;BME280;15333;50.010;20.020;2023-06-19T05:28:55;98784.88;;;26.08;47.73
28008;BME280;15333;50.010;20.020;2023-06-19T05:31:56;98781.38;;;25.61;48.65
28008;BME280;15333;50.010;20.020;2023-06-19T05:34:57;98790.78;;;26.25;47.31
28008;BME280;15333;50.010;20.020;2023-06-19T05:37:58;98790.44;;;25.42;49.34
28008;BME280;15333;50.010;20.020;2023-06-19T05:40:59;98787.59;;;24.22;52.07
28008;BME280;15333;50.010;20.020;2023-06-19T05:44:00;98799.91;;;25.92;48.27
28008;BME280;15333;50.010;20.020;2023-06-19T05:47:01;98798.22;;;25.91;48.66
28008;BME280;15333;50.010;20.020;2023-06-19T05:50:03;98794.22;;;26.00;49.30
28008;BME280;15333;50.010;20.020;2023-06-19T05:53:05;98801.97;;;26.74;46.55
28008;BME280;15333;50.010;20.020;2023-06-19T05:56:06;98803.94;;;25.70;48.35
28008;BME280;15333;50.010;20.020;2023-06-19T05:59:07;98803.44;;;26.19;46.90
28008;BME280;15333;50.010;20.020;2023-06-19T06:02:08;98805.16;;;26.13;48.08
28008;BME280;15333;50.010;20.020;2023-06-19T06:05:09;98802.44;;;25.87;48.93
28008;BME280;15333;50.010;20.020;2023-06-19T06:08:10;98799.16;;;27.25;45.57
28008;BME280;15333;50.010;20.020;2023-06-19T06:11:12;98803.09;;;26.60;46.41
28008;BME280;15333;50.010;20.020;2023-06-19T06:14:13;98798.38;;;26.09;47.08
28008;BME280;15333;50.010;20.020;2023-06-19T06:17:14;98795.88;;;25.03;50.32
28008;BME280;15333;50.010;20.020;2023-06-19T06:20:18;98795.44;;;24.04;52.82
28008;BME280;15333;50.010;20.020;2023-06-19T06:23:19;98799.06;;;22.85;56.03
28008;BME280;15333;50.010;20.020;2023-06-19T06:26:20;98807.72;;;22.74;56.63
28008;BME280;15333;50.010;20.020;2023-06-19T06:29:22;98806.03;;;22.37;58.20
28008;BME280;15333;50.010;20.020;2023-06-19T06:32:23;98809.28;;;22.32;57.62
28008;BME280;15333;50.010;20.020;2023-06-19T06:35:24;98809.38;;;22.39;57.61
28008;BME280;15333;50.010;20.020;2023-06-19T06:38:25;98808.19;;;22.12;59.58
28008;BME280;15333;50.010;20.020;2023-06-19T06:41:25;98808.25;;;22.48;59.04
28008;BME280;15333;50.010;20.020;2023-06-19T06:44:27;98812.38;;;22.73;58.92
28008;BME280;15333;50.010;20.020;2023-06-19T06:47:28;98813.91;;;22.82;56.34
28008;BME280;15333;50.010;20.020;2023-06-19T06:50:28;98813.03;;;22.96;56.68
28008;BME280;15333;50.010;20.020;2023-06-19T06:53:32;98821.31;;;22.88;56.94
28008;BME280;15333;50.010;20.020;2023-06-19T06:56:33;98823.47;;;22.57;58.10
28008;BME280;15333;50.010;20.020;2023-06-19T06:59:34;98817.75;;;22.88;57.52
28008;BME280;15333;50.010;20.020;2023-06-19T07:02:37;98818.75;;;23.23;55.22
28008;BME280;15333;50.010;20.020;2023-06-19T07:05:39;98820.00;;;23.20;55.51
28008;BME280;15333;50.010;20.020;2023-06-19T07:08:40;98820.19;;;22.97;56.38
28008;BME280;15333;50.010;20.020;2023-06-19T07:11:41;98819.25;;;22.90;56.10
28008;BME280;15333;50.010;20.020;2023-06-19T07:14:42;98817.97;;;23.29;55.29
28008;BME280;15333;50.010;20.020;2023-06-19T07:17:44;98822.66;;;23.35;55.12
28008;BME280;15333;50.010;20.020;2023-06-19T07:20:45;98816.09;;;23.78;52.89
28008;BME280;15333;50.010;20.020;2023-06-19T07:23:46;98819.63;;;23.72;52.86
28008;BME280;15333;50.010;20.020;2023-06-19T07:26:50;98814.88;;;23.88;52.24
28008;BME280;15333;50.010;20.020;2023-06-19T07:29:51;98812.81;;;23.62;52.75
28008;BME280;15333;50.010;20.020;2023-06-19T07:32:52;98813.28;;;23.65;52.27
28008;BME280;15333;50.010;20.020;2023-06-19T07:35:53;98823.56;;;23.42;51.91
28008;BME280;15333;50.010;20.020;2023-06-19T07:38:55;98826.41;;;23.34;52.30
28008;BME280;15333;50.010;20.020;2023-06-19T07:41:55;98829.63;;;23.87;50.82
28008;BME280;15333;50.010;20.020;2023-06-19T07:44:56;98832.00;;;23.47;51.95
28008;BME280;15333;50.010;20.020;2023-06-19T07:47:57;98830.47;;;22.45;53.42
28008;BME280;15333;50.010;20.020;2023-06-19T07:50:58;98835.41;;;22.56;52.80
28008;BME280;15333;50.010;20.020;2023-06-19T07:53:59;98833.16;;;23.38;50.66
28008;BME280;15333;50.010;20.020;2023-06-19T07:57:01;98836.22;;;23.71;50.01
28008;BME280;15333;50.010;20.020;2023-06-19T08:00:02;98820.56;;;23.86;49.74
28008;BME280;15333;50.010;20.020;2023-06-19T08:03:12;98826.44;;;23.83;49.51
28008;BME280;15333;50.010;20.020;2023-06-19T08:06:13;98831.19;;;23.74;49.82
28008;BME280;15333;50.010;20.020;2023-06-19T08:09:14;98824.69;;;23.75;50.45
28008;BME280;15333;50.010;20.020;2023-06-19T08:12:15;98827.44;;;24.10;49.88
28008;BME280;15333;50.010;20.020;2023-06-19T08:15:16;98829.34;;;23.81;50.32
28008;BME280;15333;50.010;20.020;2023-06-19T08:18:17;98828.47;;;23.74;50.83
28008;BME280;15333;50.010;20.020;2023-06-19T08:21:18;98827.19;;;24.05;50.11
28008;BME280;15333;50.010;20.020;2023-06-19T08:24:21;98828.75;;;24.14;49.99
28008;BME280;15333;50.010;20.020;2023-06-19T08:27:22;98828.25;;;24.04;50.53
28008;BME280;15333;50.010;20.020;2023-06-19T08:30:23;98827.78;;;23.94;50.95
28008;BME280;15333;50.010;20.020;2023-06-19T08:33:24;98826.41;;;24.11;50.94
28008;BME280;15333;50.010;20.020;2023-06-19T08:36:24;98823.91;;;24.50;50.38
28008;BME280;15333;50.010;20.020;2023-06-19T08:39:25;98819.34;;;24.71;50.38
28008;BME280;15333;50.010;20.020;2023-06-19T08:42:26;98819.88;;;24.12;50.42
28008;BME280;15333;50.010;20.020;2023-06-19T08:45:28;98815.22;;;24.06;50.26
28008;BME280;15333;50.010;20.020;2023-06-19T08:48:29;98824.59;;;23.62;50.69
28008;BME280;15333;50.010;20.020;2023-06-19T08:51:30;98819.88;;;23.77;50.56
28008;BME280;15333;50.010;20.020;2023-06-19T08:54:32;98818.44;;;24.50;49.26
28008;BME280;15333;50.010;20.020;2023-06-19T08:57:38;98818.84;;;24.54;49.46
28008;BME280;15333;50.010;20.020;2023-06-19T09:00:39;98821.16;;;24.44;49.91
28008;BME280;15333;50.010;20.020;2023-06-19T09:03:40;98821.44;;;24.69;48.19
28008;BME280;15333;50.010;20.020;2023-06-19T09:06:51;98817.31;;;24.04;50.03
28008;BME280;15333;50.010;20.020;2023-06-19T09:09:53;98812.72;;;24.11;50.35
28008;BME280;15333;50.010;20.020;2023-06-19T09:12:58;98812.97;;;24.50;49.99
28008;BME280;15333;50.010;20.020;2023-06-19T09:16:07;98806.97;;;24.88;48.96
28008;BME280;15333;50.010;20.020;2023-06-19T09:19:08;98806.19;;;24.46;47.75
28008;BME280;15333;50.010;20.020;2023-06-19T09:22:09;98806.25;;;24.59;48.91
28008;BME280;15333;50.010;20.020;2023-06-19T09:25:10;98801.59;;;24.53;48.59
28008;BME280;15333;50.010;20.020;2023-06-19T09:28:21;98813.47;;;24.87;48.45
28008;BME280;15333;50.010;20.020;2023-06-19T09:31:32;98807.69;;;24.49;48.73
28008;BME280;15333;50.010;20.020;2023-06-19T09:34:34;98802.81;;;24.44;47.89
28008;BME280;15333;50.010;20.020;2023-06-19T09:37:34;98798.88;;;24.60;47.89
28008;BME280;15333;50.010;20.020;2023-06-19T09:40:38;98796.31;;;25.32;44.79
28008;BME280;15333;50.010;20.020;2023-06-19T09:43:43;98792.50;;;25.86;42.84
28008;BME280;15333;50.010;20.020;2023-06-19T09:46:44;98797.97;;;26.06;42.13
28008;BME280;15333;50.010;20.020;2023-06-19T09:49:54;98799.31;;;25.77;43.15
28008;BME280;15333;50.010;20.020;2023-06-19T09:52:56;98797.19;;;25.92;43.33
28008;BME280;15333;50.010;20.020;2023-06-19T09:55:57;98793.69;;;26.43;41.97
28008;BME280;15333;50.010;20.020;2023-06-19T09:58:59;98786.50;;;26.42;41.80
28008;BME280;15333;50.010;20.020;2023-06-19T10:02:00;98792.81;;;26.49;42.15
28008;BME280;15333;50.010;20.020;2023-06-19T10:05:06;98795.41;;;26.31;41.46
28008;BME280;15333;50.010;20.020;2023-06-19T10:08:12;98797.59;;;25.89;41.71
28008;BME280;15333;50.010;20.020;2023-06-19T10:11:13;98792.47;;;26.19;41.11
28008;BME280;15333;50.010;20.020;2023-06-19T10:14:14;98787.34;;;26.80;40.65
28008;BME280;15333;50.010;20.020;2023-06-19T10:17:18;98790.66;;;26.51;39.26
28008;BME280;15333;50.010;20.020;2023-06-19T10:20:26;98791.78;;;26.81;39.07
28008;BME280;15333;50.010;20.020;2023-06-19T10:23:36;98790.84;;;25.92;41.13
28008;BME280;15333;50.010;20.020;2023-06-19T10:26:37;98782.53;;;27.14;38.98
28008;BME280;15333;50.010;20.020;2023-06-19T10:29:39;98777.16;;;27.50;38.12
28008;BME280;15333;50.010;20.020;2023-06-19T10:32:40;98776.69;;;27.35;38.34
28008;BME280;15333;50.010;20.020;2023-06-19T10:35:41;98774.56;;;27.31;39.16
28008;BME280;15333;50.010;20.020;2023-06-19T10:38:42;98763.91;;;27.90;37.51
28008;BME280;15333;50.010;20.020;2023-06-19T10:41:52;98771.13;;;27.42;38.29
28008;BME280;15333;50.010;20.020;2023-06-19T10:45:02;98764.72;;;26.92;38.91
28008;BME280;15333;50.010;20.020;2023-06-19T10:48:04;98766.59;;;26.53;39.58
28008;BME280;15333;50.010;20.020;2023-06-19T10:51:05;98761.19;;;27.65;37.79
28008;BME280;15333;50.010;20.020;2023-06-19T10:54:07;98766.28;;;27.37;38.34
28008;BME280;15333;50.010;20.020;2023-06-19T10:57:08;98766.75;;;27.03;38.97
28008;BME280;15333;50.010;20.020;2023-06-19T11:00:09;98777.25;;;26.30;40.29
28008;BME280;15333;50.010;20.020;2023-06-19T11:03:14;98776.69;;;27.04;40.69
28008;BME280;15333;50.010;20.020;2023-06-19T11:06:19;98775.84;;;27.03;41.84
28008;BME280;15333;50.010;20.020;2023-06-19T11:09:21;98771.94;;;26.79;42.66
28008;BME280;15333;50.010;20.020;2023-06-19T11:12:22;98775.66;;;25.89;43.28
28008;BME280;15333;50.010;20.020;2023-06-19T11:15:34;98769.75;;;25.13;44.15
28008;BME280;15333;50.010;20.020;2023-06-19T11:18:36;98770.59;;;25.01;44.33
28008;BME280;15333;50.010;20.020;2023-06-19T11:21:37;98769.31;;;25.16;43.80
28008;BME280;15333;50.010;20.020;2023-06-19T11:24:45;98772.72;;;25.45;43.53
28008;BME280;15333;50.010;20.020;2023-06-19T11:27:46;98772.91;;;25.89;42.66
28008;BME280;15333;50.010;20.020;2023-06-19T11:31:02;98764.09;;;26.45;41.10
28008;BME280;15333;50.010;20.020;2023-06-19T11:34:03;98762.38;;;26.57;41.13
28008;BME280;15333;50.010;20.020;2023-06-19T11:37:15;98757.13;;;27.43;39.96
28008;BME280;15333;50.010;20.020;2023-06-19T11:40:16;98762.09;;;27.59;39.29
28008;BME280;15333;50.010;20.020;2023-06-19T11:43:28;98756.91;;;27.20;40.49
28008;BME280;15333;50.010;20.020;2023-06-19T11:46:34;98756.22;;;27.00;40.73
28008;BME280;15333;50.010;20.020;2023-06-19T11:49:35;98761.72;;;25.97;42.75
28008;BME280;15333;50.010;20.020;2023-06-19T11:52:36;98759.72;;;26.31;42.67
28008;BME280;15333;50.010;20.020;2023-06-19T11:55:37;98757.94;;;25.72;42.80
28008;BME280;15333;50.010;20.020;2023-06-19T11:58:38;98757.97;;;25.59;43.99
28008;BME280;15333;50.010;20.020;2023-06-19T12:01:39;98757.22;;;26.09;42.55
28008;BME280;15333;50.010;20.020;2023-06-19T12:04:40;98755.34;;;27.06;40.80
28008;BME280;15333;50.010;20.020;2023-06-19T12:07:41;98752.66;;;27.74;40.52
28008;BME280;15333;50.010;20.020;2023-06-19T12:10:42;98750.06;;;27.79;41.54
28008;BME280;15333;50.010;20.020;2023-06-19T12:13:43;98741.84;;;28.15;41.32
28008;BME280;15333;50.010;20.020;2023-06-19T12:16:48;98751.09;;;28.39;39.70
28008;BME280;15333;50.010;20.020;2023-06-19T12:19:49;98747.44;;;28.27;39.26
28008;BME280;15333;50.010;20.020;2023-06-19T12:22:49;98742.81;;;27.84;40.01
28008;BME280;15333;50.010;20.020;2023-06-19T12:25:50;98748.09;;;28.04;40.38
28008;BME280;15333;50.010;20.020;2023-06-19T12:28:51;98744.44;;;28.28;40.29
28008;BME280;15333;50.010;20.020;2023-06-19T12:31:52;98746.00;;;27.99;39.61
28008;BME280;15333;50.010;20.020;2023-06-19T12:34:53;98737.63;;;27.94;39.30
28008;BME280;15333;50.010;20.020;2023-06-19T12:37:54;98735.84;;;27.63;40.02
28008;BME280;15333;50.010;20.020;2023-06-19T12:40:55;98731.50;;;27.92;40.11
28008;BME280;15333;50.010;20.020;2023-06-19T12:43:56;98727.75;;;27.69;41.14
28008;BME280;15333;50.010;20.020;2023-06-19T12:46:57;98717.25;;;28.20;39.40
28008;BME280;15333;50.010;20.020;2023-06-19T12:50:00;98728.38;;;27.71;39.94
28008;BME280;15333;50.010;20.020;2023-06-19T12:53:01;98712.53;;;27.16;41.84
28008;BME280;15333;50.010;20.020;2023-06-19T12:56:03;98721.28;;;26.75;42.17
28008;BME280;15333;50.010;20.020;2023-06-19T12:59:04;98710.75;;;27.04;41.37
28008;BME280;15333;50.010;20.020;2023-06-19T13:02:05;98706.31;;;27.52;40.59
28008;BME280;15333;50.010;20.020;2023-06-19T13:05:06;98718.09;;;27.59;41.32
28008;BME280;15333;50.010;20.020;2023-06-19T13:08:07;98721.09;;;27.02;41.62
28008;BME280;15333;50.010;20.020;2023-06-19T13:11:08;98722.25;;;26.56;41.64
28008;BME280;15333;50.010;20.020;2023-06-19T13:14:09;98722.81;;;26.27;42.50
28008;BME280;15333;50.010;20.020;2023-06-19T13:17:10;98721.06;;;26.39;43.18
28008;BME280;15333;50.010;20.020;2023-06-19T13:20:11;98718.47;;;25.99;44.25
28008;BME280;15333;50.010;20.020;2023-06-19T13:23:12;98719.28;;;26.06;44.66
28008;BME280;15333;50.010;20.020;2023-06-19T13:26:13;98714.38;;;26.22;44.52
28008;BME280;15333;50.010;20.020;2023-06-19T13:29:14;98717.09;;;26.28;43.64
28008;BME280;15333;50.010;20.020;2023-06-19T13:32:15;98715.66;;;26.12;43.94
28008;BME280;15333;50.010;20.020;2023-06-19T13:35:16;98714.41;;;26.02;43.56
28008;BME280;15333;50.010;20.020;2023-06-19T13:38:17;98718.81;;;26.09;43.78
28008;BME280;15333;50.010;20.020;2023-06-19T13:41:18;98710.72;;;25.44;45.30
28008;BME280;15333;50.010;20.020;2023-06-19T13:44:19;98710.94;;;25.68;44.71
28008;BME280;15333;50.010;20.020;2023-06-19T13:47:20;98712.22;;;26.24;43.71
28008;BME280;15333;50.010;20.020;2023-06-19T13:50:21;98706.66;;;26.50;42.31
28008;BME280;15333;50.010;20.020;2023-06-19T13:53:23;98708.59;;;26.74;42.32
28008;BME280;15333;50.010;20.020;2023-06-19T13:56:24;98701.31;;;26.86;42.03
28008;BME280;15333;50.010;20.020;2023-06-19T13:59:25;98701.78;;;26.83;42.48
28008;BME280;15333;50.010;20.020;2023-06-19T14:02:26;98700.03;;;26.64;42.19
28008;BME280;15333;50.010;20.020;2023-06-19T14:05:27;98702.00;;;26.82;41.69
28008;BME280;15333;50.010;20.020;2023-06-19T14:08:28;98705.34;;;27.15;40.79
28008;BME280;15333;50.010;20.020;2023-06-19T14:11:30;98700.16;;;27.32;40.48
28008;BME280;15333;50.010;20.020;2023-06-19T14:14:33;98700.91;;;26.89;41.09
28008;BME280;15333;50.010;20.020;2023-06-19T14:17:34;98706.56;;;26.63;41.39
28008;BME280;15333;50.010;20.020;2023-06-19T14:20:35;98695.91;;;26.73;41.62
28008;BME280;15333;50.010;20.020;2023-06-19T14:23:35;98707.75;;;26.74;41.76
28008;BME280;15333;50.010;20.020;2023-06-19T14:26:41;98696.47;;;27.20;40.47
28008;BME280;15333;50.010;20.020;2023-06-19T14:29:41;98693.09;;;27.18;42.26
28008;BME280;15333;50.010;20.020;2023-06-19T14:32:42;98693.31;;;27.41;42.06
28008;BME280;15333;50.010;20.020;2023-06-19T14:35:43;98697.03;;;27.47;40.93
28008;BME280;15333;50.010;20.020;2023-06-19T14:38:46;98709.84;;;27.35;41.17
28008;BME280;15333;50.010;20.020;2023-06-19T14:41:47;98707.25;;;27.40;41.09
28008;BME280;15333;50.010;20.020;2023-06-19T14:44:48;98707.13;;;27.78;39.76
28008;BME280;15333;50.010;20.020;2023-06-19T14:47:49;98704.97;;;27.61;39.80
28008;BME280;15333;50.010;20.020;2023-06-19T14:50:50;98699.56;;;27.48;40.77
28008;BME280;15333;50.010;20.020;2023-06-19T14:53:51;98699.19;;;27.20;41.96
28008;BME280;15333;50.010;20.020;2023-06-19T14:56:52;98705.97;;;27.42;41.96
28008;BME280;15333;50.010;20.020;2023-06-19T14:59:54;98706.44;;;27.82;41.10
28008;BME280;15333;50.010;20.020;2023-06-19T15:02:55;98705.75;;;27.19;42.01
28008;BME280;15333;50.010;20.020;2023-06-19T15:05:56;98710.84;;;27.40;41.30
28008;BME280;15333;50.010;20.020;2023-06-19T15:08:57;98699.47;;;27.80;41.39
28008;BME280;15333;50.010;20.020;2023-06-19T15:11:57;98701.00;;;27.33;41.54
28008;BME280;15333;50.010;20.020;2023-06-19T15:14:58;98696.47;;;27.20;41.97
28008;BME280;15333;50.010;20.020;2023-06-19T15:17:59;98700.94;;;27.39;41.88
28008;BME280;15333;50.010;20.020;2023-06-19T15:21:01;98696.72;;;27.80;40.85
28008;BME280;15333;50.010;20.020;2023-06-19T15:24:02;98698.25;;;27.94;40.04
28008;BME280;15333;50.010;20.020;2023-06-19T15:27:03;98684.91;;;28.16;40.57
28008;BME280;15333;50.010;20.020;2023-06-19T15:30:05;98687.56;;;28.22;40.19
28008;BME280;15333;50.010;20.020;2023-06-19T15:33:06;98684.94;;;28.09;40.89
28008;BME280;15333;50.010;20.020;2023-06-19T15:36:07;98684.44;;;28.19;39.74
28008;BME280;15333;50.010;20.020;2023-06-19T15:39:08;98685.75;;;28.16;39.66
28008;BME280;15333;50.010;20.020;2023-06-19T15:42:09;98684.66;;;27.99;39.90
28008;BME280;15333;50.010;20.020;2023-06-19T15:45:10;98686.97;;;28.20;39.67
28008;BME280;15333;50.010;20.020;2023-06-19T15:48:13;98684.81;;;28.22;39.56
28008;BME280;15333;50.010;20.020;2023-06-19T15:51:14;98686.47;;;28.41;39.27